Accueil
METAR-TAF:

METAR-TAF

Aéroports :

Ndjamena, Tchad

Aéroport international de Ndjamena

latitude: 12-08N, longitude: 015-02E, altitude: 295 m

Observation

Le bulletin a été fait il y a 1 heure et 14 minutes, à 18:00 UTC
Vent 6 kt de nord-est
Température 38°C
Humidité 12%
Pression 1005 hPa
Visibilité: 6000 m

METAR: FTTJ 241800Z 04006KT 6000 NSC 38/04 Q1005 NOSIG

Heure: 20:14 (19:14 UTC)

Prévision

Le bulletin a été fait il y a 2 heures et 14 minutes, à 17:00 UTC
Prévision valable du 24 à 18 UTC au 25 à 24 UTC
Vent 6 kt de est
Visibilité: 5000 m
brume sèche
Temporairement
du 25 à 00 UTC au 25 à 06 UTC
Visibilité: 2500 m
poussière généralisée
Temporairement
du 25 à 10 UTC au 25 à 16 UTC
Vent 12 kt de est
Visibilité: 4000 m
Quelques nuages à une hauteur de 4000 ft
brume sèche

TAF: FTTJ 241700Z 2418/2524 08006KT 5000 HZ NSC TEMPO 2500/2506 2500 DU TEMPO 2510/2516 10012KT 4000 HZ FEW040

Observations et prévisions météorologiques de plus de 4000 aéroports (messages METAR et TAF).

Les stations disponibles sont représentées par des disques jaunes et rouges sur la carte.

Passer la souris dessus pour voir le nom de la station.

Cliquer dessus pour voir les observations et prévisions météorologiques.

Pour changer de carte: cliquez sur les boutons verts avec une croix noire pour zoomer, sur le bouton vert avec un tiret pour effectuer un zoom arrière, ou sur les flèches vertes pour les cartes adjacentes.


METAR-TAF: